sensor_id;sensor_type;location;lat;lon;timestamp;P1;durP1;ratioP1;P2;durP2;ratioP2
78382;SDS011;67668;52.294;4.692;2024-03-29T00:00:33;4.33;;;0.70;;
78382;SDS011;67668;52.294;4.692;2024-03-29T00:02:59;4.20;;;0.70;;
78382;SDS011;67668;52.294;4.692;2024-03-29T00:05:25;4.65;;;0.82;;
78382;SDS011;67668;52.294;4.692;2024-03-29T00:07:50;2.60;;;0.73;;
78382;SDS011;67668;52.294;4.692;2024-03-29T00:10:15;4.13;;;0.90;;
78382;SDS011;67668;52.294;4.692;2024-03-29T00:12:41;4.97;;;0.83;;
78382;SDS011;67668;52.294;4.692;2024-03-29T00:17:32;2.03;;;0.50;;
78382;SDS011;67668;52.294;4.692;2024-03-29T00:19:57;4.50;;;1.33;;
78382;SDS011;67668;52.294;4.692;2024-03-29T00:22:23;7.00;;;0.87;;
78382;SDS011;67668;52.294;4.692;2024-03-29T00:24:48;5.50;;;0.70;;
78382;SDS011;67668;52.294;4.692;2024-03-29T00:27:13;5.47;;;0.87;;
78382;SDS011;67668;52.294;4.692;2024-03-29T00:29:39;8.27;;;0.90;;
78382;SDS011;67668;52.294;4.692;2024-03-29T00:32:04;4.32;;;0.80;;
78382;SDS011;67668;52.294;4.692;2024-03-29T00:36:55;2.57;;;0.90;;
78382;SDS011;67668;52.294;4.692;2024-03-29T00:39:21;5.83;;;0.50;;
78382;SDS011;67668;52.294;4.692;2024-03-29T00:41:46;2.23;;;0.40;;
78382;SDS011;67668;52.294;4.692;2024-03-29T00:46:37;2.60;;;0.80;;
78382;SDS011;67668;52.294;4.692;2024-03-29T00:49:02;6.35;;;0.95;;
78382;SDS011;67668;52.294;4.692;2024-03-29T00:51:27;3.00;;;0.50;;
78382;SDS011;67668;52.294;4.692;2024-03-29T00:53:53;1.70;;;0.53;;
78382;SDS011;67668;52.294;4.692;2024-03-29T00:56:20;8.52;;;0.75;;
78382;SDS011;67668;52.294;4.692;2024-03-29T00:58:45;3.88;;;0.60;;
78382;SDS011;67668;52.294;4.692;2024-03-29T01:01:11;2.03;;;0.30;;
78382;SDS011;67668;52.294;4.692;2024-03-29T01:03:36;3.55;;;0.52;;
78382;SDS011;67668;52.294;4.692;2024-03-29T01:06:01;4.67;;;0.80;;
78382;SDS011;67668;52.294;4.692;2024-03-29T01:10:52;1.60;;;0.50;;
78382;SDS011;67668;52.294;4.692;2024-03-29T01:13:18;1.47;;;0.30;;
78382;SDS011;67668;52.294;4.692;2024-03-29T01:15:44;4.07;;;0.75;;
78382;SDS011;67668;52.294;4.692;2024-03-29T01:18:09;4.23;;;0.90;;
78382;SDS011;67668;52.294;4.692;2024-03-29T01:20:35;1.35;;;0.35;;
78382;SDS011;67668;52.294;4.692;2024-03-29T01:25:26;3.73;;;0.70;;
78382;SDS011;67668;52.294;4.692;2024-03-29T01:27:52;2.70;;;0.60;;
78382;SDS011;67668;52.294;4.692;2024-03-29T01:30:18;4.10;;;0.98;;
78382;SDS011;67668;52.294;4.692;2024-03-29T01:32:43;3.67;;;0.88;;
78382;SDS011;67668;52.294;4.692;2024-03-29T01:35:09;2.37;;;0.47;;
78382;SDS011;67668;52.294;4.692;2024-03-29T01:37:34;1.75;;;0.28;;
78382;SDS011;67668;52.294;4.692;2024-03-29T01:40:00;3.95;;;1.20;;
78382;SDS011;67668;52.294;4.692;2024-03-29T01:44:51;3.47;;;0.47;;
78382;SDS011;67668;52.294;4.692;2024-03-29T01:47:16;3.47;;;0.50;;
78382;SDS011;67668;52.294;4.692;2024-03-29T01:49:43;4.63;;;0.57;;
78382;SDS011;67668;52.294;4.692;2024-03-29T01:52:10;4.75;;;0.65;;
78382;SDS011;67668;52.294;4.692;2024-03-29T01:54:36;4.03;;;0.63;;
78382;SDS011;67668;52.294;4.692;2024-03-29T01:57:02;2.05;;;0.52;;
78382;SDS011;67668;52.294;4.692;2024-03-29T02:01:53;5.50;;;0.50;;
78382;SDS011;67668;52.294;4.692;2024-03-29T02:04:18;2.90;;;0.47;;
78382;SDS011;67668;52.294;4.692;2024-03-29T02:09:09;3.40;;;0.80;;
78382;SDS011;67668;52.294;4.692;2024-03-29T02:11:35;4.37;;;0.77;;
78382;SDS011;67668;52.294;4.692;2024-03-29T02:14:00;4.10;;;1.00;;
78382;SDS011;67668;52.294;4.692;2024-03-29T02:18:51;2.27;;;0.73;;
78382;SDS011;67668;52.294;4.692;2024-03-29T02:23:43;2.77;;;0.27;;
78382;SDS011;67668;52.294;4.692;2024-03-29T02:26:11;3.90;;;0.90;;
78382;SDS011;67668;52.294;4.692;2024-03-29T02:28:37;2.75;;;0.40;;
78382;SDS011;67668;52.294;4.692;2024-03-29T02:31:03;2.10;;;0.55;;
78382;SDS011;67668;52.294;4.692;2024-03-29T02:33:29;6.95;;;0.88;;
78382;SDS011;67668;52.294;4.692;2024-03-29T02:35:55;9.38;;;0.73;;
78382;SDS011;67668;52.294;4.692;2024-03-29T02:40:45;1.77;;;0.60;;
78382;SDS011;67668;52.294;4.692;2024-03-29T02:43:11;3.63;;;0.60;;
78382;SDS011;67668;52.294;4.692;2024-03-29T02:45:36;3.43;;;0.80;;
78382;SDS011;67668;52.294;4.692;2024-03-29T02:48:03;7.03;;;1.15;;
78382;SDS011;67668;52.294;4.692;2024-03-29T02:52:54;4.73;;;0.60;;
78382;SDS011;67668;52.294;4.692;2024-03-29T02:55:19;4.73;;;1.00;;
78382;SDS011;67668;52.294;4.692;2024-03-29T02:57:45;1.67;;;0.53;;
78382;SDS011;67668;52.294;4.692;2024-03-29T03:00:10;6.23;;;0.93;;
78382;SDS011;67668;52.294;4.692;2024-03-29T03:02:39;9.55;;;1.40;;
78382;SDS011;67668;52.294;4.692;2024-03-29T03:05:05;4.03;;;0.70;;
78382;SDS011;67668;52.294;4.692;2024-03-29T03:07:31;1.15;;;0.75;;
78382;SDS011;67668;52.294;4.692;2024-03-29T03:10:15;4.10;;;1.38;;
78382;SDS011;67668;52.294;4.692;2024-03-29T03:12:59;3.58;;;0.60;;
78382;SDS011;67668;52.294;4.692;2024-03-29T03:17:49;3.23;;;0.63;;
78382;SDS011;67668;52.294;4.692;2024-03-29T03:20:15;1.30;;;0.17;;
78382;SDS011;67668;52.294;4.692;2024-03-29T03:22:41;1.08;;;0.50;;
78382;SDS011;67668;52.294;4.692;2024-03-29T03:27:32;2.47;;;0.43;;
78382;SDS011;67668;52.294;4.692;2024-03-29T03:32:22;5.43;;;0.87;;
78382;SDS011;67668;52.294;4.692;2024-03-29T03:37:13;2.47;;;0.60;;
78382;SDS011;67668;52.294;4.692;2024-03-29T03:39:38;4.88;;;0.73;;
78382;SDS011;67668;52.294;4.692;2024-03-29T03:44:29;3.50;;;0.53;;
78382;SDS011;67668;52.294;4.692;2024-03-29T03:49:20;5.80;;;0.47;;
78382;SDS011;67668;52.294;4.692;2024-03-29T03:54:10;1.60;;;0.47;;
78382;SDS011;67668;52.294;4.692;2024-03-29T03:56:36;3.03;;;0.63;;
78382;SDS011;67668;52.294;4.692;2024-03-29T03:59:01;2.53;;;0.63;;
78382;SDS011;67668;52.294;4.692;2024-03-29T04:01:26;1.90;;;0.63;;
78382;SDS011;67668;52.294;4.692;2024-03-29T04:03:52;4.10;;;0.60;;
78382;SDS011;67668;52.294;4.692;2024-03-29T04:08:45;2.03;;;0.47;;
78382;SDS011;67668;52.294;4.692;2024-03-29T04:11:11;4.78;;;0.50;;
78382;SDS011;67668;52.294;4.692;2024-03-29T04:16:04;1.15;;;0.40;;
78382;SDS011;67668;52.294;4.692;2024-03-29T04:18:30;2.67;;;0.75;;
78382;SDS011;67668;52.294;4.692;2024-03-29T04:20:59;1.65;;;0.45;;
78382;SDS011;67668;52.294;4.692;2024-03-29T04:23:25;1.38;;;0.38;;
78382;SDS011;67668;52.294;4.692;2024-03-29T04:28:20;1.92;;;0.38;;
78382;SDS011;67668;52.294;4.692;2024-03-29T04:30:56;0.93;;;0.20;;
78382;SDS011;67668;52.294;4.692;2024-03-29T04:33:23;3.92;;;0.95;;
78382;SDS011;67668;52.294;4.692;2024-03-29T04:35:53;1.70;;;0.40;;
78382;SDS011;67668;52.294;4.692;2024-03-29T04:38:23;3.13;;;0.77;;
78382;SDS011;67668;52.294;4.692;2024-03-29T04:43:15;2.50;;;0.70;;
78382;SDS011;67668;52.294;4.692;2024-03-29T04:48:06;1.07;;;0.30;;
78382;SDS011;67668;52.294;4.692;2024-03-29T04:50:32;2.22;;;0.30;;
78382;SDS011;67668;52.294;4.692;2024-03-29T04:52:57;1.30;;;0.40;;
78382;SDS011;67668;52.294;4.692;2024-03-29T04:55:22;3.08;;;0.50;;
78382;SDS011;67668;52.294;4.692;2024-03-29T04:57:48;2.43;;;0.70;;
78382;SDS011;67668;52.294;4.692;2024-03-29T05:00:13;2.53;;;0.50;;
78382;SDS011;67668;52.294;4.692;2024-03-29T05:02:38;2.05;;;0.40;;
78382;SDS011;67668;52.294;4.692;2024-03-29T05:07:29;1.73;;;0.43;;
78382;SDS011;67668;52.294;4.692;2024-03-29T05:12:20;7.82;;;0.70;;
78382;SDS011;67668;52.294;4.692;2024-03-29T05:14:46;2.55;;;0.60;;
78382;SDS011;67668;52.294;4.692;2024-03-29T05:17:14;1.23;;;0.22;;
78382;SDS011;67668;52.294;4.692;2024-03-29T05:22:05;3.33;;;0.50;;
78382;SDS011;67668;52.294;4.692;2024-03-29T05:26:56;0.67;;;0.27;;
78382;SDS011;67668;52.294;4.692;2024-03-29T05:31:47;0.90;;;0.53;;
78382;SDS011;67668;52.294;4.692;2024-03-29T05:34:12;0.67;;;0.30;;
78382;SDS011;67668;52.294;4.692;2024-03-29T05:36:38;1.02;;;0.40;;
78382;SDS011;67668;52.294;4.692;2024-03-29T05:41:28;2.63;;;0.43;;
78382;SDS011;67668;52.294;4.692;2024-03-29T05:43:55;1.48;;;0.43;;
78382;SDS011;67668;52.294;4.692;2024-03-29T05:48:46;1.70;;;0.20;;
78382;SDS011;67668;52.294;4.692;2024-03-29T05:53:36;0.60;;;0.13;;
78382;SDS011;67668;52.294;4.692;2024-03-29T05:58:27;0.90;;;0.20;;
78382;SDS011;67668;52.294;4.692;2024-03-29T06:03:18;0.53;;;0.13;;
78382;SDS011;67668;52.294;4.692;2024-03-29T06:08:08;0.37;;;0.10;;
78382;SDS011;67668;52.294;4.692;2024-03-29T06:12:59;1.20;;;0.33;;
78382;SDS011;67668;52.294;4.692;2024-03-29T06:15:33;0.20;;;0.10;;
78382;SDS011;67668;52.294;4.692;2024-03-29T06:18:17;0.75;;;0.45;;
78382;SDS011;67668;52.294;4.692;2024-03-29T06:23:09;2.08;;;0.20;;
78382;SDS011;67668;52.294;4.692;2024-03-29T06:28:00;0.50;;;0.38;;
78382;SDS011;67668;52.294;4.692;2024-03-29T06:30:25;1.10;;;0.30;;
78382;SDS011;67668;52.294;4.692;2024-03-29T06:32:50;0.47;;;0.23;;
78382;SDS011;67668;52.294;4.692;2024-03-29T06:37:41;0.93;;;0.40;;
78382;SDS011;67668;52.294;4.692;2024-03-29T06:42:33;0.75;;;0.22;;
78382;SDS011;67668;52.294;4.692;2024-03-29T06:47:24;0.32;;;0.17;;
78382;SDS011;67668;52.294;4.692;2024-03-29T06:52:15;0.23;;;0.17;;
78382;SDS011;67668;52.294;4.692;2024-03-29T06:57:05;1.10;;;0.20;;
78382;SDS011;67668;52.294;4.692;2024-03-29T07:01:56;4.50;;;0.23;;
78382;SDS011;67668;52.294;4.692;2024-03-29T07:06:48;0.68;;;0.20;;
78382;SDS011;67668;52.294;4.692;2024-03-29T07:09:17;1.58;;;0.45;;
78382;SDS011;67668;52.294;4.692;2024-03-29T07:11:47;0.20;;;0.17;;
78382;SDS011;67668;52.294;4.692;2024-03-29T07:14:16;3.05;;;0.68;;
78382;SDS011;67668;52.294;4.692;2024-03-29T07:16:43;2.45;;;0.52;;
78382;SDS011;67668;52.294;4.692;2024-03-29T07:21:37;0.55;;;0.20;;
78382;SDS011;67668;52.294;4.692;2024-03-29T07:24:03;2.65;;;0.30;;
78382;SDS011;67668;52.294;4.692;2024-03-29T07:26:28;0.60;;;0.40;;
78382;SDS011;67668;52.294;4.692;2024-03-29T07:28:53;0.80;;;0.40;;
78382;SDS011;67668;52.294;4.692;2024-03-29T07:31:19;3.33;;;0.53;;
78382;SDS011;67668;52.294;4.692;2024-03-29T07:33:44;0.88;;;0.40;;
78382;SDS011;67668;52.294;4.692;2024-03-29T07:38:36;2.67;;;0.47;;
78382;SDS011;67668;52.294;4.692;2024-03-29T07:41:03;1.90;;;0.30;;
78382;SDS011;67668;52.294;4.692;2024-03-29T07:43:36;1.70;;;0.20;;
78382;SDS011;67668;52.294;4.692;2024-03-29T07:46:03;5.15;;;0.47;;
78382;SDS011;67668;52.294;4.692;2024-03-29T07:48:29;1.13;;;0.30;;
78382;SDS011;67668;52.294;4.692;2024-03-29T07:50:54;1.90;;;0.40;;
78382;SDS011;67668;52.294;4.692;2024-03-29T07:53:19;1.53;;;0.30;;
78382;SDS011;67668;52.294;4.692;2024-03-29T07:55:45;2.10;;;0.30;;
78382;SDS011;67668;52.294;4.692;2024-03-29T07:58:10;2.87;;;0.60;;
78382;SDS011;67668;52.294;4.692;2024-03-29T08:00:39;1.17;;;0.30;;
78382;SDS011;67668;52.294;4.692;2024-03-29T08:03:07;1.65;;;0.30;;
78382;SDS011;67668;52.294;4.692;2024-03-29T08:05:33;1.33;;;0.25;;
78382;SDS011;67668;52.294;4.692;2024-03-29T08:07:58;0.77;;;0.30;;
78382;SDS011;67668;52.294;4.692;2024-03-29T08:10:24;1.33;;;0.10;;
78382;SDS011;67668;52.294;4.692;2024-03-29T08:12:49;0.60;;;0.33;;
78382;SDS011;67668;52.294;4.692;2024-03-29T08:15:15;1.73;;;0.40;;
78382;SDS011;67668;52.294;4.692;2024-03-29T08:17:43;2.40;;;0.35;;
78382;SDS011;67668;52.294;4.692;2024-03-29T08:20:08;0.82;;;0.38;;
78382;SDS011;67668;52.294;4.692;2024-03-29T08:22:34;0.50;;;0.28;;
78382;SDS011;67668;52.294;4.692;2024-03-29T08:24:59;2.20;;;0.50;;
78382;SDS011;67668;52.294;4.692;2024-03-29T08:27:25;1.60;;;0.45;;
78382;SDS011;67668;52.294;4.692;2024-03-29T08:29:51;2.92;;;0.43;;
78382;SDS011;67668;52.294;4.692;2024-03-29T08:32:17;1.40;;;0.57;;
78382;SDS011;67668;52.294;4.692;2024-03-29T08:34:42;1.63;;;0.38;;
78382;SDS011;67668;52.294;4.692;2024-03-29T08:37:08;1.20;;;0.45;;
78382;SDS011;67668;52.294;4.692;2024-03-29T08:39:33;2.00;;;0.47;;
78382;SDS011;67668;52.294;4.692;2024-03-29T08:41:59;1.42;;;0.60;;
78382;SDS011;67668;52.294;4.692;2024-03-29T08:44:27;0.70;;;0.40;;
78382;SDS011;67668;52.294;4.692;2024-03-29T08:46:53;1.50;;;0.60;;
78382;SDS011;67668;52.294;4.692;2024-03-29T08:49:21;1.02;;;0.65;;
78382;SDS011;67668;52.294;4.692;2024-03-29T08:51:46;0.87;;;0.50;;
78382;SDS011;67668;52.294;4.692;2024-03-29T08:54:11;0.93;;;0.43;;
78382;SDS011;67668;52.294;4.692;2024-03-29T08:56:37;1.70;;;0.90;;
78382;SDS011;67668;52.294;4.692;2024-03-29T08:59:03;2.72;;;1.40;;
78382;SDS011;67668;52.294;4.692;2024-03-29T09:01:32;3.03;;;1.10;;
78382;SDS011;67668;52.294;4.692;2024-03-29T09:04:02;1.15;;;0.50;;
78382;SDS011;67668;52.294;4.692;2024-03-29T09:06:28;2.63;;;1.00;;
78382;SDS011;67668;52.294;4.692;2024-03-29T09:08:53;3.90;;;1.17;;
78382;SDS011;67668;52.294;4.692;2024-03-29T09:11:19;1.90;;;0.90;;
78382;SDS011;67668;52.294;4.692;2024-03-29T09:13:44;1.53;;;0.90;;
78382;SDS011;67668;52.294;4.692;2024-03-29T09:16:09;2.10;;;0.80;;
78382;SDS011;67668;52.294;4.692;2024-03-29T09:18:35;2.60;;;0.90;;
78382;SDS011;67668;52.294;4.692;2024-03-29T09:21:00;3.40;;;1.30;;
78382;SDS011;67668;52.294;4.692;2024-03-29T09:23:26;2.00;;;0.70;;
78382;SDS011;67668;52.294;4.692;2024-03-29T09:25:56;2.85;;;1.08;;
78382;SDS011;67668;52.294;4.692;2024-03-29T09:28:22;2.15;;;1.10;;
78382;SDS011;67668;52.294;4.692;2024-03-29T09:30:48;1.70;;;1.05;;
78382;SDS011;67668;52.294;4.692;2024-03-29T09:33:14;1.83;;;0.83;;
78382;SDS011;67668;52.294;4.692;2024-03-29T09:35:39;2.15;;;1.20;;
78382;SDS011;67668;52.294;4.692;2024-03-29T09:38:04;3.03;;;1.00;;
78382;SDS011;67668;52.294;4.692;2024-03-29T09:40:30;2.70;;;1.10;;
78382;SDS011;67668;52.294;4.692;2024-03-29T09:42:56;5.07;;;1.10;;
78382;SDS011;67668;52.294;4.692;2024-03-29T09:45:34;2.72;;;0.93;;
78382;SDS011;67668;52.294;4.692;2024-03-29T09:48:02;3.20;;;1.15;;
78382;SDS011;67668;52.294;4.692;2024-03-29T09:50:29;2.13;;;0.88;;
78382;SDS011;67668;52.294;4.692;2024-03-29T09:52:58;2.97;;;0.80;;
78382;SDS011;67668;52.294;4.692;2024-03-29T09:55:23;5.00;;;0.85;;
78382;SDS011;67668;52.294;4.692;2024-03-29T09:57:49;1.20;;;0.60;;
78382;SDS011;67668;52.294;4.692;2024-03-29T10:00:16;2.17;;;0.85;;
78382;SDS011;67668;52.294;4.692;2024-03-29T10:02:43;1.15;;;0.70;;
78382;SDS011;67668;52.294;4.692;2024-03-29T10:05:08;2.10;;;1.00;;
78382;SDS011;67668;52.294;4.692;2024-03-29T10:07:37;1.25;;;0.70;;
78382;SDS011;67668;52.294;4.692;2024-03-29T10:10:05;2.28;;;0.73;;
78382;SDS011;67668;52.294;4.692;2024-03-29T10:12:30;1.10;;;0.70;;
78382;SDS011;67668;52.294;4.692;2024-03-29T10:14:56;1.53;;;0.50;;
78382;SDS011;67668;52.294;4.692;2024-03-29T10:17:30;0.98;;;0.50;;
78382;SDS011;67668;52.294;4.692;2024-03-29T10:19:58;6.90;;;1.10;;
78382;SDS011;67668;52.294;4.692;2024-03-29T10:22:25;2.75;;;0.95;;
78382;SDS011;67668;52.294;4.692;2024-03-29T10:24:51;2.13;;;0.60;;
78382;SDS011;67668;52.294;4.692;2024-03-29T10:27:16;1.83;;;0.50;;
78382;SDS011;67668;52.294;4.692;2024-03-29T10:29:42;0.80;;;0.47;;
78382;SDS011;67668;52.294;4.692;2024-03-29T10:32:07;1.23;;;0.70;;
78382;SDS011;67668;52.294;4.692;2024-03-29T10:34:34;1.10;;;0.60;;
78382;SDS011;67668;52.294;4.692;2024-03-29T10:37:01;1.02;;;0.45;;
78382;SDS011;67668;52.294;4.692;2024-03-29T10:39:28;1.33;;;0.40;;
78382;SDS011;67668;52.294;4.692;2024-03-29T10:41:55;1.52;;;0.40;;
78382;SDS011;67668;52.294;4.692;2024-03-29T10:44:22;3.92;;;0.43;;
78382;SDS011;67668;52.294;4.692;2024-03-29T10:46:48;1.55;;;0.40;;
78382;SDS011;67668;52.294;4.692;2024-03-29T10:49:15;2.75;;;0.50;;
78382;SDS011;67668;52.294;4.692;2024-03-29T10:51:42;0.70;;;0.50;;
78382;SDS011;67668;52.294;4.692;2024-03-29T10:54:08;1.25;;;0.50;;
78382;SDS011;67668;52.294;4.692;2024-03-29T10:56:35;0.98;;;0.50;;
78382;SDS011;67668;52.294;4.692;2024-03-29T11:02:12;1.30;;;0.80;;
78382;SDS011;67668;52.294;4.692;2024-03-29T11:04:40;1.90;;;0.82;;
78382;SDS011;67668;52.294;4.692;2024-03-29T11:07:09;2.22;;;1.10;;
78382;SDS011;67668;52.294;4.692;2024-03-29T11:09:41;2.42;;;1.13;;
78382;SDS011;67668;52.294;4.692;2024-03-29T11:12:07;3.25;;;1.50;;
78382;SDS011;67668;52.294;4.692;2024-03-29T11:14:42;2.72;;;1.25;;
78382;SDS011;67668;52.294;4.692;2024-03-29T11:17:13;1.70;;;1.15;;
78382;SDS011;67668;52.294;4.692;2024-03-29T11:19:39;2.58;;;2.22;;
78382;SDS011;67668;52.294;4.692;2024-03-29T11:22:05;1.73;;;1.40;;
78382;SDS011;67668;52.294;4.692;2024-03-29T11:24:31;2.05;;;1.40;;
78382;SDS011;67668;52.294;4.692;2024-03-29T11:26:57;2.08;;;1.40;;
78382;SDS011;67668;52.294;4.692;2024-03-29T11:29:22;2.25;;;1.23;;
78382;SDS011;67668;52.294;4.692;2024-03-29T11:31:58;2.28;;;1.58;;
78382;SDS011;67668;52.294;4.692;2024-03-29T11:34:24;3.67;;;2.05;;
78382;SDS011;67668;52.294;4.692;2024-03-29T11:36:50;2.88;;;1.35;;
78382;SDS011;67668;52.294;4.692;2024-03-29T11:39:21;2.57;;;1.77;;
78382;SDS011;67668;52.294;4.692;2024-03-29T11:41:48;3.58;;;1.60;;
78382;SDS011;67668;52.294;4.692;2024-03-29T11:44:15;2.25;;;1.58;;
78382;SDS011;67668;52.294;4.692;2024-03-29T11:46:41;2.67;;;1.38;;
78382;SDS011;67668;52.294;4.692;2024-03-29T11:49:07;2.75;;;1.30;;
78382;SDS011;67668;52.294;4.692;2024-03-29T11:51:33;3.37;;;1.50;;
78382;SDS011;67668;52.294;4.692;2024-03-29T11:53:59;2.45;;;1.38;;
78382;SDS011;67668;52.294;4.692;2024-03-29T11:56:25;4.90;;;1.50;;
78382;SDS011;67668;52.294;4.692;2024-03-29T11:58:50;4.27;;;1.67;;
78382;SDS011;67668;52.294;4.692;2024-03-29T12:01:15;2.83;;;1.27;;
78382;SDS011;67668;52.294;4.692;2024-03-29T12:03:41;2.17;;;0.95;;
78382;SDS011;67668;52.294;4.692;2024-03-29T12:06:08;2.15;;;1.30;;
78382;SDS011;67668;52.294;4.692;2024-03-29T12:08:38;1.83;;;1.00;;
78382;SDS011;67668;52.294;4.692;2024-03-29T12:11:04;3.35;;;1.45;;
78382;SDS011;67668;52.294;4.692;2024-03-29T12:13:30;4.70;;;1.50;;
78382;SDS011;67668;52.294;4.692;2024-03-29T12:15:56;1.67;;;1.20;;
78382;SDS011;67668;52.294;4.692;2024-03-29T12:18:23;2.72;;;1.27;;
78382;SDS011;67668;52.294;4.692;2024-03-29T12:20:49;1.92;;;1.08;;
78382;SDS011;67668;52.294;4.692;2024-03-29T12:23:16;3.53;;;1.10;;
78382;SDS011;67668;52.294;4.692;2024-03-29T12:25:43;3.00;;;1.23;;
78382;SDS011;67668;52.294;4.692;2024-03-29T12:28:09;2.85;;;1.58;;
78382;SDS011;67668;52.294;4.692;2024-03-29T12:30:35;1.83;;;1.30;;
78382;SDS011;67668;52.294;4.692;2024-03-29T12:33:02;3.42;;;1.10;;
78382;SDS011;67668;52.294;4.692;2024-03-29T12:35:32;7.72;;;1.70;;
78382;SDS011;67668;52.294;4.692;2024-03-29T12:37:59;4.20;;;1.60;;
78382;SDS011;67668;52.294;4.692;2024-03-29T12:40:26;2.47;;;1.50;;
78382;SDS011;67668;52.294;4.692;2024-03-29T12:42:54;1.85;;;1.50;;
78382;SDS011;67668;52.294;4.692;2024-03-29T12:45:21;4.75;;;2.10;;
78382;SDS011;67668;52.294;4.692;2024-03-29T12:47:47;4.95;;;1.83;;
78382;SDS011;67668;52.294;4.692;2024-03-29T12:50:34;2.78;;;1.70;;
78382;SDS011;67668;52.294;4.692;2024-03-29T12:53:01;2.97;;;2.00;;
78382;SDS011;67668;52.294;4.692;2024-03-29T12:55:31;4.85;;;2.10;;
78382;SDS011;67668;52.294;4.692;2024-03-29T12:58:00;4.00;;;2.38;;
78382;SDS011;67668;52.294;4.692;2024-03-29T13:00:26;4.32;;;2.45;;
78382;SDS011;67668;52.294;4.692;2024-03-29T13:02:54;5.50;;;2.50;;
78382;SDS011;67668;52.294;4.692;2024-03-29T13:05:20;2.78;;;2.45;;
78382;SDS011;67668;52.294;4.692;2024-03-29T13:07:45;3.77;;;2.20;;
78382;SDS011;67668;52.294;4.692;2024-03-29T13:10:10;3.25;;;2.30;;
78382;SDS011;67668;52.294;4.692;2024-03-29T13:12:42;4.72;;;2.60;;
78382;SDS011;67668;52.294;4.692;2024-03-29T13:15:15;3.97;;;2.85;;
78382;SDS011;67668;52.294;4.692;2024-03-29T13:17:41;3.75;;;3.00;;
78382;SDS011;67668;52.294;4.692;2024-03-29T13:20:06;3.87;;;2.83;;
78382;SDS011;67668;52.294;4.692;2024-03-29T13:22:33;5.30;;;2.45;;
78382;SDS011;67668;52.294;4.692;2024-03-29T13:24:59;3.15;;;2.72;;
78382;SDS011;67668;52.294;4.692;2024-03-29T13:27:24;4.15;;;2.35;;
78382;SDS011;67668;52.294;4.692;2024-03-29T13:29:50;3.43;;;2.60;;
78382;SDS011;67668;52.294;4.692;2024-03-29T13:32:15;5.53;;;2.60;;
78382;SDS011;67668;52.294;4.692;2024-03-29T13:34:40;2.57;;;1.77;;
78382;SDS011;67668;52.294;4.692;2024-03-29T13:37:06;3.20;;;2.07;;
78382;SDS011;67668;52.294;4.692;2024-03-29T13:39:31;4.87;;;2.27;;
78382;SDS011;67668;52.294;4.692;2024-03-29T13:41:57;2.38;;;2.03;;
78382;SDS011;67668;52.294;4.692;2024-03-29T13:44:22;2.53;;;1.73;;
78382;SDS011;67668;52.294;4.692;2024-03-29T13:46:48;6.00;;;1.77;;
78382;SDS011;67668;52.294;4.692;2024-03-29T13:49:13;2.80;;;1.37;;
78382;SDS011;67668;52.294;4.692;2024-03-29T13:51:38;3.13;;;1.33;;
78382;SDS011;67668;52.294;4.692;2024-03-29T13:54:04;4.87;;;1.50;;
78382;SDS011;67668;52.294;4.692;2024-03-29T13:56:30;3.85;;;1.60;;
78382;SDS011;67668;52.294;4.692;2024-03-29T13:58:55;4.28;;;1.65;;
78382;SDS011;67668;52.294;4.692;2024-03-29T14:01:21;2.00;;;1.40;;
78382;SDS011;67668;52.294;4.692;2024-03-29T14:03:46;5.27;;;1.47;;
78382;SDS011;67668;52.294;4.692;2024-03-29T14:06:11;3.88;;;1.45;;
78382;SDS011;67668;52.294;4.692;2024-03-29T14:08:37;3.65;;;1.65;;
78382;SDS011;67668;52.294;4.692;2024-03-29T14:11:02;2.17;;;1.00;;
78382;SDS011;67668;52.294;4.692;2024-03-29T14:13:27;2.83;;;1.33;;
78382;SDS011;67668;52.294;4.692;2024-03-29T14:15:54;2.73;;;1.63;;
78382;SDS011;67668;52.294;4.692;2024-03-29T14:18:20;1.52;;;1.10;;
78382;SDS011;67668;52.294;4.692;2024-03-29T14:20:45;2.40;;;1.10;;
78382;SDS011;67668;52.294;4.692;2024-03-29T14:23:11;3.67;;;1.40;;
78382;SDS011;67668;52.294;4.692;2024-03-29T14:25:39;4.90;;;1.23;;
78382;SDS011;67668;52.294;4.692;2024-03-29T14:28:05;3.00;;;1.67;;
78382;SDS011;67668;52.294;4.692;2024-03-29T14:30:31;2.60;;;1.40;;
78382;SDS011;67668;52.294;4.692;2024-03-29T14:32:56;4.00;;;1.53;;
78382;SDS011;67668;52.294;4.692;2024-03-29T14:35:21;2.57;;;1.57;;
78382;SDS011;67668;52.294;4.692;2024-03-29T14:37:47;3.90;;;1.75;;
78382;SDS011;67668;52.294;4.692;2024-03-29T14:40:13;2.75;;;1.52;;
78382;SDS011;67668;52.294;4.692;2024-03-29T14:42:42;3.33;;;1.05;;
78382;SDS011;67668;52.294;4.692;2024-03-29T14:45:08;3.08;;;1.60;;
78382;SDS011;67668;52.294;4.692;2024-03-29T14:47:36;3.60;;;1.55;;
78382;SDS011;67668;52.294;4.692;2024-03-29T14:50:01;1.70;;;1.00;;
78382;SDS011;67668;52.294;4.692;2024-03-29T14:52:29;4.97;;;1.33;;
78382;SDS011;67668;52.294;4.692;2024-03-29T14:54:55;3.88;;;1.27;;
78382;SDS011;67668;52.294;4.692;2024-03-29T14:57:21;2.13;;;1.10;;
78382;SDS011;67668;52.294;4.692;2024-03-29T14:59:48;3.35;;;1.20;;
78382;SDS011;67668;52.294;4.692;2024-03-29T15:02:13;1.88;;;0.85;;
78382;SDS011;67668;52.294;4.692;2024-03-29T15:04:38;2.17;;;1.00;;
78382;SDS011;67668;52.294;4.692;2024-03-29T15:07:04;2.30;;;1.13;;
78382;SDS011;67668;52.294;4.692;2024-03-29T15:09:29;2.10;;;1.10;;
78382;SDS011;67668;52.294;4.692;2024-03-29T15:11:55;6.03;;;1.20;;
78382;SDS011;67668;52.294;4.692;2024-03-29T15:14:20;2.17;;;1.45;;
78382;SDS011;67668;52.294;4.692;2024-03-29T15:16:45;2.65;;;1.02;;
78382;SDS011;67668;52.294;4.692;2024-03-29T15:19:12;2.95;;;1.23;;
78382;SDS011;67668;52.294;4.692;2024-03-29T15:21:37;2.42;;;1.25;;
78382;SDS011;67668;52.294;4.692;2024-03-29T15:24:05;2.45;;;1.25;;
78382;SDS011;67668;52.294;4.692;2024-03-29T15:26:30;2.58;;;1.55;;
78382;SDS011;67668;52.294;4.692;2024-03-29T15:28:57;3.88;;;1.38;;
78382;SDS011;67668;52.294;4.692;2024-03-29T15:31:33;2.30;;;0.98;;
78382;SDS011;67668;52.294;4.692;2024-03-29T15:33:59;2.15;;;1.05;;
78382;SDS011;67668;52.294;4.692;2024-03-29T15:36:24;1.63;;;1.00;;
78382;SDS011;67668;52.294;4.692;2024-03-29T15:38:50;4.23;;;1.17;;
78382;SDS011;67668;52.294;4.692;2024-03-29T15:41:16;2.53;;;0.95;;
78382;SDS011;67668;52.294;4.692;2024-03-29T15:43:42;2.47;;;1.02;;
78382;SDS011;67668;52.294;4.692;2024-03-29T15:46:08;1.47;;;0.77;;
78382;SDS011;67668;52.294;4.692;2024-03-29T15:48:34;2.90;;;1.08;;
78382;SDS011;67668;52.294;4.692;2024-03-29T15:50:59;2.28;;;1.45;;
78382;SDS011;67668;52.294;4.692;2024-03-29T15:53:25;5.63;;;0.80;;
78382;SDS011;67668;52.294;4.692;2024-03-29T15:55:50;3.37;;;0.80;;
78382;SDS011;67668;52.294;4.692;2024-03-29T15:58:16;1.80;;;0.43;;
78382;SDS011;67668;52.294;4.692;2024-03-29T16:00:41;1.75;;;0.55;;
78382;SDS011;67668;52.294;4.692;2024-03-29T16:03:10;1.98;;;0.47;;
78382;SDS011;67668;52.294;4.692;2024-03-29T16:05:41;4.20;;;0.57;;
78382;SDS011;67668;52.294;4.692;2024-03-29T16:08:10;1.52;;;0.60;;
78382;SDS011;67668;52.294;4.692;2024-03-29T16:10:50;3.30;;;0.75;;
78382;SDS011;67668;52.294;4.692;2024-03-29T16:13:18;2.60;;;0.75;;
78382;SDS011;67668;52.294;4.692;2024-03-29T16:15:44;3.00;;;0.90;;
78382;SDS011;67668;52.294;4.692;2024-03-29T16:18:09;1.70;;;0.95;;
78382;SDS011;67668;52.294;4.692;2024-03-29T16:20:35;2.17;;;0.80;;
78382;SDS011;67668;52.294;4.692;2024-03-29T16:23:00;2.72;;;1.00;;
78382;SDS011;67668;52.294;4.692;2024-03-29T16:25:26;1.85;;;0.90;;
78382;SDS011;67668;52.294;4.692;2024-03-29T16:27:52;3.00;;;1.20;;
78382;SDS011;67668;52.294;4.692;2024-03-29T16:30:17;1.57;;;0.87;;
78382;SDS011;67668;52.294;4.692;2024-03-29T16:32:44;1.20;;;0.80;;
78382;SDS011;67668;52.294;4.692;2024-03-29T16:35:09;5.23;;;1.53;;
78382;SDS011;67668;52.294;4.692;2024-03-29T16:37:34;4.93;;;1.00;;
78382;SDS011;67668;52.294;4.692;2024-03-29T16:39:59;2.80;;;0.87;;